East Carolina University, North Carolina
Current Conditions -  °F | °C
As of 9:35 PM on Sunday 23 Nov 2014 (Local Time) from KPGV Reporting Station
Drizzle Drizzle  
Wind Chill: 63°   Ceiling: 1300
Heat Index: 63°   Visibility: 5mi
Dew Point: 63°   Wind: 7mph
Humidity: 100%   Direction: 160°SSE
Pressure: 29.92"   Gusts: NA
Location:  35.6768°N, 77.3482°W
Report Text: KPGV 240235Z AUTO 16006KT 5SM +DZ OVC013 17/17 A2992 RMK AO2 P0007
Loading
Personal Weather Stations






























Interactive Weather Map New forecast layout! Learn more

10-Day Weather Forecast

Advertisements
Track Severe Weather on mobile